»·PEaware :: QXE2395 KMSO-KSEA

QXE2395 :: KMSO-KSEA

FLIGHT INFORMATION

Flight Status: Arrived
Operator:
Horizon Air
More flights by this operator :: More flights under this callsign
Pilot: Trevor S. (2559)
Aircraft: DEHAVILLAND DASH 8 400
(DH8D)
More flights by this aircraft type
Origin: KMSO Missoula Intl
United States
Destination: KSEA Seattle-Tacoma Intl
United States
More flights between these airports :: More routes between these airports
Route: DIDLY4 MLP GLASR1
File this flight plan on PilotEdge
Remarks: Horizon Air
Altitude:
(Current/Filed)
240ft
Speed:
(Current/Filed)
340kts
Departed: 14-Dec-17 09:04 PM
Arrived: 14-Dec-17 10:23 PM
Distance/Time
Traveled:
336nm/1:19
Distance/Time
To Go:
Arrived

Flight Plot

Page will automatically refresh every two minutes.

Flight plan parsing failed; only flown route is shown


Map Options




Map Legend


Flown Route
Filed Route
Departure Airport
Arrival Airport
Navaid (VOR, NDB)
Fix

Horizontal Profiles

Position Reports

Time Latitude Longitude Heading Altitude Ground
Speed
14-Dec-17 20:25 46.918742 -114.084844 82 3212ft 0kts
14-Dec-17 20:26 46.918742 -114.084844 82 3212ft 0kts
14-Dec-17 20:27 46.918742 -114.084844 82 3212ft 0kts
14-Dec-17 20:28 46.918742 -114.084844 82 3212ft 0kts
14-Dec-17 20:29 46.918742 -114.084844 82 3212ft 0kts
14-Dec-17 20:30 46.918742 -114.084844 82 3212ft 0kts
14-Dec-17 20:31 46.918742 -114.084844 82 3212ft 0kts
14-Dec-17 20:32 46.918742 -114.084844 82 3212ft 0kts
14-Dec-17 20:33 46.918742 -114.084843 82 3212ft 0kts
14-Dec-17 20:34 46.918742 -114.084843 82 3212ft 0kts
14-Dec-17 20:35 46.918742 -114.084843 82 3212ft 0kts
14-Dec-17 20:36 46.918742 -114.084843 82 3212ft 0kts
14-Dec-17 20:37 46.918742 -114.084843 82 3212ft 0kts
14-Dec-17 20:38 46.918742 -114.084843 82 3212ft 0kts
14-Dec-17 20:39 46.918742 -114.084843 82 3212ft 0kts
14-Dec-17 20:40 46.918743 -114.084843 82 3212ft 0kts
14-Dec-17 20:41 46.918743 -114.084843 82 3212ft 0kts
14-Dec-17 20:42 46.918743 -114.084843 82 3212ft 0kts
14-Dec-17 20:43 46.918743 -114.084843 82 3212ft 0kts
14-Dec-17 20:44 46.918743 -114.084843 82 3212ft 0kts
14-Dec-17 20:45 46.918743 -114.084843 82 3212ft 0kts
14-Dec-17 20:46 46.918743 -114.084843 82 3212ft 0kts
14-Dec-17 20:47 46.918743 -114.084843 82 3212ft 0kts
14-Dec-17 20:48 46.918743 -114.084843 82 3212ft 0kts
14-Dec-17 20:49 46.918743 -114.084843 82 3212ft 0kts
14-Dec-17 20:50 46.918743 -114.084843 82 3212ft 0kts
14-Dec-17 20:51 46.918743 -114.084843 82 3212ft 0kts
14-Dec-17 20:52 46.918743 -114.084843 82 3212ft 0kts
14-Dec-17 20:53 46.918743 -114.084843 82 3212ft 0kts
14-Dec-17 20:54 46.918743 -114.084843 82 3212ft 0kts
14-Dec-17 20:55 46.918743 -114.084843 82 3212ft 0kts
14-Dec-17 20:56 46.918743 -114.084843 82 3212ft 0kts
14-Dec-17 20:57 46.918743 -114.084843 82 3212ft 0kts
14-Dec-17 20:58 46.918743 -114.084843 82 3212ft 0kts
14-Dec-17 20:59 46.918711 -114.085713 133 3212ft 2kts
14-Dec-17 21:00 46.918819 -114.085802 166 3212ft 0kts
14-Dec-17 21:01 46.918819 -114.085802 166 3212ft 0kts
14-Dec-17 21:02 46.918819 -114.085802 166 3212ft 0kts
14-Dec-17 21:03 46.918815 -114.085801 166 3212ft 0kts
14-Dec-17 21:04 46.917818 -114.085481 179 3212ft 4kts
14-Dec-17 21:05 46.916875 -114.086507 221 3212ft 4kts
14-Dec-17 21:06 46.915385 -114.086656 130 3212ft 9kts
14-Dec-17 21:07 46.913293 -114.083176 130 3212ft 13kts
14-Dec-17 21:08 46.910662 -114.078676 131 3212ft 15kts
14-Dec-17 21:09 46.908363 -114.078253 313 3212ft 0kts
14-Dec-17 21:10 46.926383 -114.109456 304 4158ft 136kts
14-Dec-17 21:11 46.959425 -114.169588 316 5423ft 232kts
14-Dec-17 21:12 47.004355 -114.237094 310 8567ft 211kts
14-Dec-17 21:13 47.038796 -114.299547 306 11831ft 182kts
14-Dec-17 21:14 47.070913 -114.358824 311 13659ft 207kts
14-Dec-17 21:15 47.114174 -114.430525 312 14130ft 257kts
14-Dec-17 21:16 47.161597 -114.510687 311 15056ft 264kts
14-Dec-17 21:17 47.195911 -114.603264 293 16619ft 248kts
14-Dec-17 21:18 47.219671 -114.695907 294 18192ft 237kts
14-Dec-17 21:19 47.242847 -114.785581 294 19558ft 232kts
14-Dec-17 21:20 47.265245 -114.874469 294 20781ft 231kts
14-Dec-17 21:21 47.287711 -114.963042 294 21912ft 230kts
14-Dec-17 21:22 47.309838 -115.051657 294 22945ft 230kts
14-Dec-17 21:23 47.332011 -115.140584 294 23878ft 231kts
14-Dec-17 21:24 47.354760 -115.231591 294 24382ft 246kts
14-Dec-17 21:25 47.379633 -115.331247 293 24407ft 271kts
14-Dec-17 21:26 47.406347 -115.439541 293 24405ft 290kts
14-Dec-17 21:27 47.434388 -115.553799 293 24404ft 301kts
14-Dec-17 21:28 47.459463 -115.673622 281 24404ft 314kts
14-Dec-17 21:29 47.466477 -115.803642 280 24404ft 319kts
14-Dec-17 21:30 47.474935 -115.934888 280 24403ft 322kts
14-Dec-17 21:31 47.482961 -116.067307 280 24403ft 324kts
14-Dec-17 21:32 47.490764 -116.200220 279 24403ft 325kts
14-Dec-17 21:33 47.498435 -116.333169 279 24403ft 324kts
14-Dec-17 21:34 47.505954 -116.466132 279 24403ft 325kts
14-Dec-17 21:35 47.513338 -116.599519 279 24403ft 325kts
14-Dec-17 21:36 47.520567 -116.733013 279 24403ft 325kts
14-Dec-17 21:37 47.527637 -116.866473 279 24403ft 325kts
14-Dec-17 21:38 47.534572 -117.000192 279 24403ft 326kts
14-Dec-17 21:39 47.541335 -117.133762 279 24403ft 326kts
14-Dec-17 21:40 47.547966 -117.267787 279 24402ft 326kts
14-Dec-17 21:41 47.554429 -117.401667 279 24402ft 326kts
14-Dec-17 21:42 47.560732 -117.535671 278 24391ft 325kts
14-Dec-17 21:43 47.568028 -117.668653 282 24389ft 322kts
14-Dec-17 21:44 47.581685 -117.799262 283 24387ft 321kts
14-Dec-17 21:45 47.594170 -117.930204 282 24388ft 321kts
14-Dec-17 21:46 47.606433 -118.061090 282 24388ft 321kts
14-Dec-17 21:47 47.618550 -118.192006 282 24389ft 321kts
14-Dec-17 21:48 47.630517 -118.323012 282 24390ft 321kts
14-Dec-17 21:49 47.642392 -118.453991 282 24381ft 321kts
14-Dec-17 21:50 47.654078 -118.585046 281 24371ft 320kts
14-Dec-17 21:51 47.665749 -118.716067 281 24340ft 320kts
14-Dec-17 21:52 47.676904 -118.846955 280 24311ft 321kts
14-Dec-17 21:53 47.688431 -118.979230 279 24268ft 324kts
14-Dec-17 21:54 47.699294 -119.111464 279 24309ft 320kts
14-Dec-17 21:55 47.710195 -119.242075 279 24323ft 318kts
14-Dec-17 21:56 47.720797 -119.372014 279 24328ft 316kts
14-Dec-17 21:57 47.731275 -119.501597 279 24330ft 316kts
14-Dec-17 21:58 47.741581 -119.630909 279 24330ft 315kts
14-Dec-17 21:59 47.751711 -119.759872 279 24330ft 315kts
14-Dec-17 22:00 47.761858 -119.888822 278 24356ft 313kts
14-Dec-17 22:00 47.769889 -119.995731 278 24357ft 312kts
14-Dec-17 22:02 47.779342 -120.119279 277 24388ft 300kts
14-Dec-17 22:02 47.786907 -120.222493 277 24398ft 303kts
14-Dec-17 22:03 47.796148 -120.348546 277 24399ft 309kts
14-Dec-17 22:05 47.806868 -120.498036 277 24405ft 313kts
14-Dec-17 22:06 47.815982 -120.626832 277 24409ft 314kts
14-Dec-17 22:07 47.825058 -120.756193 276 24401ft 315kts
14-Dec-17 22:07 47.832553 -120.864462 277 23833ft 315kts
14-Dec-17 22:08 47.840923 -120.990708 276 22119ft 304kts
14-Dec-17 22:09 47.849121 -121.114578 276 20427ft 297kts
14-Dec-17 22:10 47.856867 -121.236023 276 18761ft 293kts
14-Dec-17 22:11 47.864775 -121.356450 277 17115ft 292kts
14-Dec-17 22:12 47.872603 -121.476773 276 15467ft 292kts
14-Dec-17 22:13 47.880031 -121.597052 276 13862ft 291kts
14-Dec-17 22:15 47.871945 -121.710308 240 12159ft 274kts
14-Dec-17 22:16 47.823457 -121.789312 228 11462ft 245kts
14-Dec-17 22:17 47.774340 -121.856231 226 9772ft 246kts
14-Dec-17 22:18 47.722964 -121.925732 225 8075ft 253kts
14-Dec-17 22:19 47.701054 -122.013387 277 6967ft 228kts
14-Dec-17 22:20 47.709053 -122.101479 277 6736ft 207kts
14-Dec-17 22:21 47.716153 -122.183980 276 4934ft 198kts
14-Dec-17 22:22 47.723156 -122.263841 274 3937ft 187kts
14-Dec-17 22:23 47.685807 -122.300367 184 3959ft 193kts
14-Dec-17 22:24 47.632025 -122.305142 182 3644ft 192kts
14-Dec-17 22:25 47.578846 -122.306783 180 2717ft 182kts
14-Dec-17 22:26 47.531655 -122.307232 179 1853ft 171kts
14-Dec-17 22:27 47.488153 -122.307535 179 946ft 163kts
14-Dec-17 22:28 47.453896 -122.307835 180 441ft 67kts
14-Dec-17 22:29 47.449975 -122.306739 93 440ft 0kts
14-Dec-17 22:30 47.449975 -122.306734 92 440ft 0kts
14-Dec-17 22:31 47.448062 -122.306138 180 441ft 12kts
14-Dec-17 22:32 47.445378 -122.305131 91 441ft 6kts
14-Dec-17 22:33 47.445369 -122.304703 91 440ft 0kts
14-Dec-17 22:34 47.445369 -122.304703 91 440ft 0kts
14-Dec-17 22:35 47.445369 -122.304703 91 440ft 0kts
14-Dec-17 22:36 47.445369 -122.304703 91 440ft 0kts
14-Dec-17 22:37 47.445369 -122.304703 91 440ft 0kts
14-Dec-17 22:38 47.445369 -122.304703 91 440ft 0kts
14-Dec-17 22:39 47.445369 -122.304703 91 440ft 0kts
14-Dec-17 22:40 47.445369 -122.304702 91 440ft 0kts
14-Dec-17 22:41 47.445369 -122.304702 91 440ft 0kts
14-Dec-17 22:42 47.445369 -122.304702 91 440ft 0kts
14-Dec-17 22:43 47.445369 -122.304702 91 440ft 0kts

Navigation Log

Ident Type
Flight plan parsing failed, navigation log unavailable